Windermere, Canada
Current Conditions -  °F | °C
As of 10:32 PM on Tuesday 25 Nov 2014 (Local Time) from CYXC Reporting Station
Light Snow Light Snow  
Wind Chill: 28°   Ceiling: 5200
Heat Index: 28°   Visibility: 15mi
Dew Point: 27°   Wind: 3mph
Humidity: 93%   Direction: 330°NNW
Pressure: 30.16"   Gusts: NA
Location:  50.47°N, 115.97°W
Report Text: CYXC 260532Z 33003KT 200V340 15SM -SN FEW020 BKN052 OVC084 M02/M03 A3016 RMK SC1SC4AC3 SLP250
Loading
Personal Weather Stations






























Interactive Weather Map New forecast layout! Learn more

10-Day Weather Forecast

Advertisements
Track Severe Weather on mobile